sensor_id;sensor_type;location;lat;lon;timestamp;P1;durP1;ratioP1;P2;durP2;ratioP2
17228;SDS011;8731;50.364;8.958;2022-12-17T00:02:20;27.23;;;12.07;;
17228;SDS011;8731;50.364;8.958;2022-12-17T00:06:59;16.43;;;10.70;;
17228;SDS011;8731;50.364;8.958;2022-12-17T00:11:39;17.63;;;10.27;;
17228;SDS011;8731;50.364;8.958;2022-12-17T00:16:19;20.03;;;11.23;;
17228;SDS011;8731;50.364;8.958;2022-12-17T00:21:00;23.90;;;11.50;;
17228;SDS011;8731;50.364;8.958;2022-12-17T00:25:41;23.30;;;12.23;;
17228;SDS011;8731;50.364;8.958;2022-12-17T00:30:20;21.13;;;12.20;;
17228;SDS011;8731;50.364;8.958;2022-12-17T00:35:00;22.67;;;11.60;;
17228;SDS011;8731;50.364;8.958;2022-12-17T00:39:42;21.90;;;11.30;;
17228;SDS011;8731;50.364;8.958;2022-12-17T00:44:22;24.87;;;13.17;;
17228;SDS011;8731;50.364;8.958;2022-12-17T00:49:02;21.80;;;12.30;;
17228;SDS011;8731;50.364;8.958;2022-12-17T00:53:42;26.40;;;11.80;;
17228;SDS011;8731;50.364;8.958;2022-12-17T00:58:24;20.63;;;12.07;;
17228;SDS011;8731;50.364;8.958;2022-12-17T01:03:05;21.63;;;12.10;;
17228;SDS011;8731;50.364;8.958;2022-12-17T01:08:05;22.63;;;11.77;;
17228;SDS011;8731;50.364;8.958;2022-12-17T01:12:46;18.33;;;11.37;;
17228;SDS011;8731;50.364;8.958;2022-12-17T01:17:27;20.77;;;11.67;;
17228;SDS011;8731;50.364;8.958;2022-12-17T01:22:07;18.07;;;10.03;;
17228;SDS011;8731;50.364;8.958;2022-12-17T01:26:47;21.30;;;11.13;;
17228;SDS011;8731;50.364;8.958;2022-12-17T01:31:27;20.10;;;10.80;;
17228;SDS011;8731;50.364;8.958;2022-12-17T01:36:11;18.57;;;11.43;;
17228;SDS011;8731;50.364;8.958;2022-12-17T01:40:51;25.03;;;11.20;;
17228;SDS011;8731;50.364;8.958;2022-12-17T01:45:32;22.33;;;11.60;;
17228;SDS011;8731;50.364;8.958;2022-12-17T01:50:17;21.63;;;11.63;;
17228;SDS011;8731;50.364;8.958;2022-12-17T01:55:04;22.77;;;12.23;;
17228;SDS011;8731;50.364;8.958;2022-12-17T01:59:45;22.53;;;11.37;;
17228;SDS011;8731;50.364;8.958;2022-12-17T02:04:34;22.30;;;11.63;;
17228;SDS011;8731;50.364;8.958;2022-12-17T02:09:24;21.80;;;10.97;;
17228;SDS011;8731;50.364;8.958;2022-12-17T02:14:19;20.37;;;10.93;;
17228;SDS011;8731;50.364;8.958;2022-12-17T02:19:10;19.77;;;11.37;;
17228;SDS011;8731;50.364;8.958;2022-12-17T02:24:09;22.03;;;10.73;;
17228;SDS011;8731;50.364;8.958;2022-12-17T02:29:00;21.13;;;11.53;;
17228;SDS011;8731;50.364;8.958;2022-12-17T02:33:44;21.27;;;10.80;;
17228;SDS011;8731;50.364;8.958;2022-12-17T02:38:27;19.23;;;10.73;;
17228;SDS011;8731;50.364;8.958;2022-12-17T02:43:10;20.57;;;10.80;;
17228;SDS011;8731;50.364;8.958;2022-12-17T02:47:51;20.47;;;11.37;;
17228;SDS011;8731;50.364;8.958;2022-12-17T02:52:31;18.57;;;10.27;;
17228;SDS011;8731;50.364;8.958;2022-12-17T02:57:16;16.90;;;9.83;;
17228;SDS011;8731;50.364;8.958;2022-12-17T03:02:11;20.30;;;10.90;;
17228;SDS011;8731;50.364;8.958;2022-12-17T03:06:52;21.37;;;11.60;;
17228;SDS011;8731;50.364;8.958;2022-12-17T03:11:32;21.63;;;10.83;;
17228;SDS011;8731;50.364;8.958;2022-12-17T03:16:15;18.70;;;10.83;;
17228;SDS011;8731;50.364;8.958;2022-12-17T03:20:56;19.97;;;10.97;;
17228;SDS011;8731;50.364;8.958;2022-12-17T03:25:37;20.50;;;11.33;;
17228;SDS011;8731;50.364;8.958;2022-12-17T03:30:17;21.13;;;11.47;;
17228;SDS011;8731;50.364;8.958;2022-12-17T03:34:57;21.60;;;11.53;;
17228;SDS011;8731;50.364;8.958;2022-12-17T03:39:39;19.13;;;10.83;;
17228;SDS011;8731;50.364;8.958;2022-12-17T03:44:20;19.27;;;11.07;;
17228;SDS011;8731;50.364;8.958;2022-12-17T03:49:00;20.13;;;10.83;;
17228;SDS011;8731;50.364;8.958;2022-12-17T03:53:40;22.73;;;10.40;;
17228;SDS011;8731;50.364;8.958;2022-12-17T03:58:20;19.40;;;10.53;;
17228;SDS011;8731;50.364;8.958;2022-12-17T04:03:01;22.47;;;11.00;;
17228;SDS011;8731;50.364;8.958;2022-12-17T04:07:41;19.30;;;10.20;;
17228;SDS011;8731;50.364;8.958;2022-12-17T04:12:21;19.57;;;10.10;;
17228;SDS011;8731;50.364;8.958;2022-12-17T04:17:01;20.13;;;10.63;;
17228;SDS011;8731;50.364;8.958;2022-12-17T04:21:42;20.03;;;11.17;;
17228;SDS011;8731;50.364;8.958;2022-12-17T04:26:22;19.27;;;10.97;;
17228;SDS011;8731;50.364;8.958;2022-12-17T04:31:01;24.30;;;11.43;;
17228;SDS011;8731;50.364;8.958;2022-12-17T04:35:41;19.70;;;10.03;;
17228;SDS011;8731;50.364;8.958;2022-12-17T04:40:23;19.27;;;11.07;;
17228;SDS011;8731;50.364;8.958;2022-12-17T04:45:03;18.77;;;10.73;;
17228;SDS011;8731;50.364;8.958;2022-12-17T04:49:43;17.53;;;9.63;;
17228;SDS011;8731;50.364;8.958;2022-12-17T04:54:23;19.77;;;10.10;;
17228;SDS011;8731;50.364;8.958;2022-12-17T04:59:04;17.70;;;9.83;;
17228;SDS011;8731;50.364;8.958;2022-12-17T05:03:44;15.33;;;9.00;;
17228;SDS011;8731;50.364;8.958;2022-12-17T05:08:24;17.03;;;9.73;;
17228;SDS011;8731;50.364;8.958;2022-12-17T05:13:03;14.87;;;8.93;;
17228;SDS011;8731;50.364;8.958;2022-12-17T05:17:44;19.17;;;10.77;;
17228;SDS011;8731;50.364;8.958;2022-12-17T05:22:24;18.17;;;9.73;;
17228;SDS011;8731;50.364;8.958;2022-12-17T05:27:04;20.83;;;10.47;;
17228;SDS011;8731;50.364;8.958;2022-12-17T05:31:45;16.73;;;10.03;;
17228;SDS011;8731;50.364;8.958;2022-12-17T05:36:27;17.53;;;9.63;;
17228;SDS011;8731;50.364;8.958;2022-12-17T05:41:07;20.30;;;10.27;;
17228;SDS011;8731;50.364;8.958;2022-12-17T05:45:47;16.97;;;9.13;;
17228;SDS011;8731;50.364;8.958;2022-12-17T05:50:27;16.57;;;9.60;;
17228;SDS011;8731;50.364;8.958;2022-12-17T05:55:08;19.47;;;9.50;;
17228;SDS011;8731;50.364;8.958;2022-12-17T05:59:48;15.20;;;8.67;;
17228;SDS011;8731;50.364;8.958;2022-12-17T06:04:34;21.10;;;11.07;;
17228;SDS011;8731;50.364;8.958;2022-12-17T06:09:13;20.90;;;8.30;;
17228;SDS011;8731;50.364;8.958;2022-12-17T06:13:55;15.60;;;8.47;;
17228;SDS011;8731;50.364;8.958;2022-12-17T06:18:49;16.93;;;9.40;;
17228;SDS011;8731;50.364;8.958;2022-12-17T06:23:29;16.07;;;9.20;;
17228;SDS011;8731;50.364;8.958;2022-12-17T06:28:09;21.20;;;11.33;;
17228;SDS011;8731;50.364;8.958;2022-12-17T06:32:50;20.40;;;10.60;;
17228;SDS011;8731;50.364;8.958;2022-12-17T06:37:30;16.27;;;8.70;;
17228;SDS011;8731;50.364;8.958;2022-12-17T06:42:10;18.23;;;9.30;;
17228;SDS011;8731;50.364;8.958;2022-12-17T06:46:50;13.90;;;8.53;;
17228;SDS011;8731;50.364;8.958;2022-12-17T06:51:27;17.70;;;9.03;;
17228;SDS011;8731;50.364;8.958;2022-12-17T06:56:07;15.07;;;8.40;;
17228;SDS011;8731;50.364;8.958;2022-12-17T07:00:47;17.43;;;9.23;;
17228;SDS011;8731;50.364;8.958;2022-12-17T07:05:28;14.70;;;7.73;;
17228;SDS011;8731;50.364;8.958;2022-12-17T07:10:10;14.60;;;8.17;;
17228;SDS011;8731;50.364;8.958;2022-12-17T07:14:50;15.10;;;8.43;;
17228;SDS011;8731;50.364;8.958;2022-12-17T07:19:29;13.07;;;7.60;;
17228;SDS011;8731;50.364;8.958;2022-12-17T07:24:09;13.33;;;7.30;;
17228;SDS011;8731;50.364;8.958;2022-12-17T07:28:50;13.70;;;7.53;;
17228;SDS011;8731;50.364;8.958;2022-12-17T07:33:30;13.73;;;7.90;;
17228;SDS011;8731;50.364;8.958;2022-12-17T07:38:15;17.60;;;8.60;;
17228;SDS011;8731;50.364;8.958;2022-12-17T07:42:55;17.17;;;8.87;;
17228;SDS011;8731;50.364;8.958;2022-12-17T07:47:36;19.10;;;9.70;;
17228;SDS011;8731;50.364;8.958;2022-12-17T07:52:15;20.33;;;11.17;;
17228;SDS011;8731;50.364;8.958;2022-12-17T07:56:56;26.13;;;11.50;;
17228;SDS011;8731;50.364;8.958;2022-12-17T08:01:36;27.13;;;12.67;;
17228;SDS011;8731;50.364;8.958;2022-12-17T08:06:17;36.80;;;15.10;;
17228;SDS011;8731;50.364;8.958;2022-12-17T08:10:57;43.30;;;17.83;;
17228;SDS011;8731;50.364;8.958;2022-12-17T08:15:37;39.40;;;17.40;;
17228;SDS011;8731;50.364;8.958;2022-12-17T08:20:17;42.17;;;16.47;;
17228;SDS011;8731;50.364;8.958;2022-12-17T08:24:58;42.67;;;16.70;;
17228;SDS011;8731;50.364;8.958;2022-12-17T08:29:38;50.40;;;18.60;;
17228;SDS011;8731;50.364;8.958;2022-12-17T08:34:24;44.43;;;18.63;;
17228;SDS011;8731;50.364;8.958;2022-12-17T08:39:18;55.03;;;19.90;;
17228;SDS011;8731;50.364;8.958;2022-12-17T08:43:59;53.53;;;20.80;;
17228;SDS011;8731;50.364;8.958;2022-12-17T08:48:39;52.23;;;18.13;;
17228;SDS011;8731;50.364;8.958;2022-12-17T08:53:19;56.23;;;19.03;;
17228;SDS011;8731;50.364;8.958;2022-12-17T08:57:59;48.30;;;17.10;;
17228;SDS011;8731;50.364;8.958;2022-12-17T09:02:40;49.00;;;17.67;;
17228;SDS011;8731;50.364;8.958;2022-12-17T09:07:20;41.67;;;17.70;;
17228;SDS011;8731;50.364;8.958;2022-12-17T09:12:00;39.23;;;17.03;;
17228;SDS011;8731;50.364;8.958;2022-12-17T09:16:41;42.30;;;16.83;;
17228;SDS011;8731;50.364;8.958;2022-12-17T09:21:25;40.00;;;17.63;;
17228;SDS011;8731;50.364;8.958;2022-12-17T09:26:02;39.43;;;17.33;;
17228;SDS011;8731;50.364;8.958;2022-12-17T09:30:41;43.13;;;17.70;;
17228;SDS011;8731;50.364;8.958;2022-12-17T09:35:21;37.03;;;16.83;;
17228;SDS011;8731;50.364;8.958;2022-12-17T09:40:02;37.93;;;16.00;;
17228;SDS011;8731;50.364;8.958;2022-12-17T09:44:46;34.90;;;15.83;;
17228;SDS011;8731;50.364;8.958;2022-12-17T09:49:31;32.93;;;14.53;;
17228;SDS011;8731;50.364;8.958;2022-12-17T09:54:14;39.73;;;16.03;;
17228;SDS011;8731;50.364;8.958;2022-12-17T09:59:04;31.77;;;15.63;;
17228;SDS011;8731;50.364;8.958;2022-12-17T10:03:44;33.27;;;16.27;;
17228;SDS011;8731;50.364;8.958;2022-12-17T10:08:26;32.87;;;14.10;;
17228;SDS011;8731;50.364;8.958;2022-12-17T10:13:07;32.67;;;15.93;;
17228;SDS011;8731;50.364;8.958;2022-12-17T10:17:52;31.23;;;15.73;;
17228;SDS011;8731;50.364;8.958;2022-12-17T10:22:40;33.50;;;16.30;;
17228;SDS011;8731;50.364;8.958;2022-12-17T10:27:21;29.07;;;13.50;;
17228;SDS011;8731;50.364;8.958;2022-12-17T10:32:07;34.07;;;17.30;;
17228;SDS011;8731;50.364;8.958;2022-12-17T10:36:57;46.37;;;26.13;;
17228;SDS011;8731;50.364;8.958;2022-12-17T10:41:39;34.57;;;16.83;;
17228;SDS011;8731;50.364;8.958;2022-12-17T10:46:21;34.90;;;16.67;;
17228;SDS011;8731;50.364;8.958;2022-12-17T10:51:03;37.83;;;19.73;;
17228;SDS011;8731;50.364;8.958;2022-12-17T10:55:55;36.83;;;16.60;;
17228;SDS011;8731;50.364;8.958;2022-12-17T11:00:36;35.87;;;17.70;;
17228;SDS011;8731;50.364;8.958;2022-12-17T11:05:21;34.70;;;16.50;;
17228;SDS011;8731;50.364;8.958;2022-12-17T11:10:08;34.87;;;17.90;;
17228;SDS011;8731;50.364;8.958;2022-12-17T11:14:55;33.33;;;18.13;;
17228;SDS011;8731;50.364;8.958;2022-12-17T11:19:42;35.13;;;17.20;;
17228;SDS011;8731;50.364;8.958;2022-12-17T11:24:32;33.07;;;16.50;;
17228;SDS011;8731;50.364;8.958;2022-12-17T11:29:20;36.50;;;18.23;;
17228;SDS011;8731;50.364;8.958;2022-12-17T11:34:02;36.33;;;18.97;;
17228;SDS011;8731;50.364;8.958;2022-12-17T11:38:55;37.67;;;19.27;;
17228;SDS011;8731;50.364;8.958;2022-12-17T11:43:45;34.67;;;17.93;;
17228;SDS011;8731;50.364;8.958;2022-12-17T11:48:38;34.43;;;18.80;;
17228;SDS011;8731;50.364;8.958;2022-12-17T11:53:32;32.60;;;16.77;;
17228;SDS011;8731;50.364;8.958;2022-12-17T11:58:26;35.50;;;18.13;;
17228;SDS011;8731;50.364;8.958;2022-12-17T12:03:21;32.87;;;18.53;;
17228;SDS011;8731;50.364;8.958;2022-12-17T12:08:15;38.70;;;19.10;;
17228;SDS011;8731;50.364;8.958;2022-12-17T12:13:06;36.93;;;19.20;;
17228;SDS011;8731;50.364;8.958;2022-12-17T12:18:00;36.67;;;19.80;;
17228;SDS011;8731;50.364;8.958;2022-12-17T12:22:55;39.10;;;20.07;;
17228;SDS011;8731;50.364;8.958;2022-12-17T12:27:49;39.40;;;21.27;;
17228;SDS011;8731;50.364;8.958;2022-12-17T12:32:45;34.87;;;18.53;;
17228;SDS011;8731;50.364;8.958;2022-12-17T12:37:36;33.67;;;18.00;;
17228;SDS011;8731;50.364;8.958;2022-12-17T12:42:19;35.37;;;19.20;;
17228;SDS011;8731;50.364;8.958;2022-12-17T12:47:08;32.33;;;17.83;;
17228;SDS011;8731;50.364;8.958;2022-12-17T12:51:57;35.77;;;18.90;;
17228;SDS011;8731;50.364;8.958;2022-12-17T12:56:39;39.37;;;19.40;;
17228;SDS011;8731;50.364;8.958;2022-12-17T13:01:18;38.57;;;19.10;;
17228;SDS011;8731;50.364;8.958;2022-12-17T13:06:11;34.93;;;19.10;;
17228;SDS011;8731;50.364;8.958;2022-12-17T13:10:56;38.60;;;20.27;;
17228;SDS011;8731;50.364;8.958;2022-12-17T13:15:45;44.57;;;23.77;;
17228;SDS011;8731;50.364;8.958;2022-12-17T13:20:21;37.77;;;19.80;;
17228;SDS011;8731;50.364;8.958;2022-12-17T13:24:50;38.43;;;20.20;;
17228;SDS011;8731;50.364;8.958;2022-12-17T13:29:20;35.60;;;18.37;;
17228;SDS011;8731;50.364;8.958;2022-12-17T13:33:49;35.03;;;20.20;;
17228;SDS011;8731;50.364;8.958;2022-12-17T13:38:24;33.93;;;17.13;;
17228;SDS011;8731;50.364;8.958;2022-12-17T13:42:59;36.20;;;19.53;;
17228;SDS011;8731;50.364;8.958;2022-12-17T13:47:25;32.43;;;18.33;;
17228;SDS011;8731;50.364;8.958;2022-12-17T13:52:00;39.13;;;21.20;;
17228;SDS011;8731;50.364;8.958;2022-12-17T13:56:27;44.57;;;23.63;;
17228;SDS011;8731;50.364;8.958;2022-12-17T14:01:02;37.43;;;18.10;;
17228;SDS011;8731;50.364;8.958;2022-12-17T14:05:28;32.57;;;17.40;;
17228;SDS011;8731;50.364;8.958;2022-12-17T14:09:56;32.43;;;17.80;;
17228;SDS011;8731;50.364;8.958;2022-12-17T14:14:21;32.00;;;16.97;;
17228;SDS011;8731;50.364;8.958;2022-12-17T14:18:51;36.57;;;19.53;;
17228;SDS011;8731;50.364;8.958;2022-12-17T14:23:20;37.97;;;18.90;;
17228;SDS011;8731;50.364;8.958;2022-12-17T14:27:51;36.00;;;18.57;;
17228;SDS011;8731;50.364;8.958;2022-12-17T14:32:20;32.87;;;17.77;;
17228;SDS011;8731;50.364;8.958;2022-12-17T14:36:45;32.63;;;17.80;;
17228;SDS011;8731;50.364;8.958;2022-12-17T14:41:17;36.07;;;18.53;;
17228;SDS011;8731;50.364;8.958;2022-12-17T14:45:54;32.70;;;17.33;;
17228;SDS011;8731;50.364;8.958;2022-12-17T14:50:38;36.47;;;17.73;;
17228;SDS011;8731;50.364;8.958;2022-12-17T14:55:01;62.17;;;22.90;;
17228;SDS011;8731;50.364;8.958;2022-12-17T14:59:51;35.87;;;18.63;;
17228;SDS011;8731;50.364;8.958;2022-12-17T15:04:14;31.27;;;17.77;;
17228;SDS011;8731;50.364;8.958;2022-12-17T15:08:38;37.43;;;19.63;;
17228;SDS011;8731;50.364;8.958;2022-12-17T15:13:04;40.77;;;19.33;;
17228;SDS011;8731;50.364;8.958;2022-12-17T15:17:28;32.73;;;18.57;;
17228;SDS011;8731;50.364;8.958;2022-12-17T15:21:51;36.43;;;18.33;;
17228;SDS011;8731;50.364;8.958;2022-12-17T15:26:14;43.30;;;17.90;;
17228;SDS011;8731;50.364;8.958;2022-12-17T15:30:37;34.93;;;19.27;;
17228;SDS011;8731;50.364;8.958;2022-12-17T15:35:01;67.30;;;19.30;;
17228;SDS011;8731;50.364;8.958;2022-12-17T15:39:23;45.80;;;18.47;;
17228;SDS011;8731;50.364;8.958;2022-12-17T15:43:46;42.43;;;19.33;;
17228;SDS011;8731;50.364;8.958;2022-12-17T15:48:08;48.47;;;21.50;;
17228;SDS011;8731;50.364;8.958;2022-12-17T15:52:34;50.43;;;23.70;;
17228;SDS011;8731;50.364;8.958;2022-12-17T15:56:56;59.30;;;20.80;;
17228;SDS011;8731;50.364;8.958;2022-12-17T16:01:19;71.87;;;24.90;;
17228;SDS011;8731;50.364;8.958;2022-12-17T16:05:41;46.63;;;22.70;;
17228;SDS011;8731;50.364;8.958;2022-12-17T16:10:06;83.20;;;22.50;;
17228;SDS011;8731;50.364;8.958;2022-12-17T16:14:29;46.67;;;21.83;;
17228;SDS011;8731;50.364;8.958;2022-12-17T16:18:51;47.80;;;23.20;;
17228;SDS011;8731;50.364;8.958;2022-12-17T16:23:14;51.23;;;23.87;;
17228;SDS011;8731;50.364;8.958;2022-12-17T16:27:38;54.87;;;23.07;;
17228;SDS011;8731;50.364;8.958;2022-12-17T16:32:00;50.03;;;23.50;;
17228;SDS011;8731;50.364;8.958;2022-12-17T16:36:22;50.70;;;22.30;;
17228;SDS011;8731;50.364;8.958;2022-12-17T16:40:45;52.67;;;20.40;;
17228;SDS011;8731;50.364;8.958;2022-12-17T16:45:09;55.63;;;21.10;;
17228;SDS011;8731;50.364;8.958;2022-12-17T16:49:33;58.43;;;21.17;;
17228;SDS011;8731;50.364;8.958;2022-12-17T16:53:55;52.83;;;21.63;;
17228;SDS011;8731;50.364;8.958;2022-12-17T16:58:18;47.83;;;20.37;;
17228;SDS011;8731;50.364;8.958;2022-12-17T17:02:42;48.93;;;19.97;;
17228;SDS011;8731;50.364;8.958;2022-12-17T17:07:07;39.03;;;18.70;;
17228;SDS011;8731;50.364;8.958;2022-12-17T17:11:30;46.93;;;20.53;;
17228;SDS011;8731;50.364;8.958;2022-12-17T17:15:52;42.23;;;20.20;;
17228;SDS011;8731;50.364;8.958;2022-12-17T17:20:16;39.83;;;19.37;;
17228;SDS011;8731;50.364;8.958;2022-12-17T17:24:39;37.87;;;19.17;;
17228;SDS011;8731;50.364;8.958;2022-12-17T17:29:02;44.77;;;21.63;;
17228;SDS011;8731;50.364;8.958;2022-12-17T17:33:27;37.63;;;18.23;;
17228;SDS011;8731;50.364;8.958;2022-12-17T17:37:51;44.40;;;18.63;;
17228;SDS011;8731;50.364;8.958;2022-12-17T17:42:14;46.70;;;18.10;;
17228;SDS011;8731;50.364;8.958;2022-12-17T17:46:36;43.00;;;19.30;;
17228;SDS011;8731;50.364;8.958;2022-12-17T17:51:01;43.03;;;19.90;;
17228;SDS011;8731;50.364;8.958;2022-12-17T17:55:27;86.30;;;39.43;;
17228;SDS011;8731;50.364;8.958;2022-12-17T17:59:49;79.73;;;39.93;;
17228;SDS011;8731;50.364;8.958;2022-12-17T18:04:13;51.67;;;22.03;;
17228;SDS011;8731;50.364;8.958;2022-12-17T18:08:38;55.23;;;22.97;;
17228;SDS011;8731;50.364;8.958;2022-12-17T18:13:04;56.67;;;23.87;;
17228;SDS011;8731;50.364;8.958;2022-12-17T18:17:43;100.47;;;24.20;;
17228;SDS011;8731;50.364;8.958;2022-12-17T18:22:09;66.70;;;30.57;;
17228;SDS011;8731;50.364;8.958;2022-12-17T18:26:32;53.87;;;25.13;;
17228;SDS011;8731;50.364;8.958;2022-12-17T18:31:03;67.47;;;25.27;;
17228;SDS011;8731;50.364;8.958;2022-12-17T18:35:28;118.43;;;39.17;;
17228;SDS011;8731;50.364;8.958;2022-12-17T18:39:50;163.07;;;54.07;;
17228;SDS011;8731;50.364;8.958;2022-12-17T18:44:13;77.10;;;25.33;;
17228;SDS011;8731;50.364;8.958;2022-12-17T18:48:37;52.40;;;23.03;;
17228;SDS011;8731;50.364;8.958;2022-12-17T18:53:00;56.10;;;24.43;;
17228;SDS011;8731;50.364;8.958;2022-12-17T18:57:23;62.10;;;22.43;;
17228;SDS011;8731;50.364;8.958;2022-12-17T19:01:46;65.77;;;24.97;;
17228;SDS011;8731;50.364;8.958;2022-12-17T19:06:11;51.40;;;25.20;;
17228;SDS011;8731;50.364;8.958;2022-12-17T19:10:34;108.13;;;24.17;;
17228;SDS011;8731;50.364;8.958;2022-12-17T19:14:58;61.17;;;26.37;;
17228;SDS011;8731;50.364;8.958;2022-12-17T19:19:20;88.10;;;25.13;;
17228;SDS011;8731;50.364;8.958;2022-12-17T19:23:45;65.13;;;26.27;;
17228;SDS011;8731;50.364;8.958;2022-12-17T19:28:08;57.83;;;26.77;;
17228;SDS011;8731;50.364;8.958;2022-12-17T19:32:30;47.83;;;22.63;;
17228;SDS011;8731;50.364;8.958;2022-12-17T19:36:53;50.27;;;20.87;;
17228;SDS011;8731;50.364;8.958;2022-12-17T19:41:17;63.50;;;20.93;;
17228;SDS011;8731;50.364;8.958;2022-12-17T19:45:40;42.87;;;20.17;;
17228;SDS011;8731;50.364;8.958;2022-12-17T19:50:03;61.03;;;22.93;;
17228;SDS011;8731;50.364;8.958;2022-12-17T19:54:26;56.70;;;26.43;;
17228;SDS011;8731;50.364;8.958;2022-12-17T19:58:51;52.97;;;25.40;;
17228;SDS011;8731;50.364;8.958;2022-12-17T20:03:16;59.83;;;23.70;;
17228;SDS011;8731;50.364;8.958;2022-12-17T20:07:39;42.97;;;19.97;;
17228;SDS011;8731;50.364;8.958;2022-12-17T20:12:01;111.07;;;20.90;;
17228;SDS011;8731;50.364;8.958;2022-12-17T20:16:26;51.80;;;16.97;;
17228;SDS011;8731;50.364;8.958;2022-12-17T20:20:50;61.97;;;21.60;;
17228;SDS011;8731;50.364;8.958;2022-12-17T20:25:12;42.40;;;17.20;;
17228;SDS011;8731;50.364;8.958;2022-12-17T20:29:35;52.77;;;28.10;;
17228;SDS011;8731;50.364;8.958;2022-12-17T20:33:59;43.13;;;23.73;;
17228;SDS011;8731;50.364;8.958;2022-12-17T20:38:22;36.33;;;18.37;;
17228;SDS011;8731;50.364;8.958;2022-12-17T20:42:45;31.13;;;16.90;;
17228;SDS011;8731;50.364;8.958;2022-12-17T20:47:07;33.53;;;15.83;;
17228;SDS011;8731;50.364;8.958;2022-12-17T20:51:31;33.80;;;17.63;;
17228;SDS011;8731;50.364;8.958;2022-12-17T20:55:58;35.70;;;18.00;;
17228;SDS011;8731;50.364;8.958;2022-12-17T21:00:22;36.30;;;16.37;;
17228;SDS011;8731;50.364;8.958;2022-12-17T21:04:44;38.40;;;17.70;;
17228;SDS011;8731;50.364;8.958;2022-12-17T21:09:09;30.70;;;16.73;;
17228;SDS011;8731;50.364;8.958;2022-12-17T21:13:33;34.43;;;17.40;;
17228;SDS011;8731;50.364;8.958;2022-12-17T21:17:57;36.57;;;18.30;;
17228;SDS011;8731;50.364;8.958;2022-12-17T21:22:20;39.80;;;17.90;;
17228;SDS011;8731;50.364;8.958;2022-12-17T21:26:44;60.97;;;26.27;;
17228;SDS011;8731;50.364;8.958;2022-12-17T21:31:13;78.23;;;32.93;;
17228;SDS011;8731;50.364;8.958;2022-12-17T21:35:37;57.50;;;24.07;;
17228;SDS011;8731;50.364;8.958;2022-12-17T21:40:00;61.57;;;21.93;;
17228;SDS011;8731;50.364;8.958;2022-12-17T21:44:24;57.60;;;21.57;;
17228;SDS011;8731;50.364;8.958;2022-12-17T21:48:46;57.90;;;19.83;;
17228;SDS011;8731;50.364;8.958;2022-12-17T21:53:09;67.67;;;21.30;;
17228;SDS011;8731;50.364;8.958;2022-12-17T21:57:32;55.87;;;19.33;;
17228;SDS011;8731;50.364;8.958;2022-12-17T22:01:56;72.13;;;19.30;;
17228;SDS011;8731;50.364;8.958;2022-12-17T22:06:21;45.13;;;20.70;;
17228;SDS011;8731;50.364;8.958;2022-12-17T22:10:45;43.77;;;19.30;;
17228;SDS011;8731;50.364;8.958;2022-12-17T22:15:08;63.07;;;20.00;;
17228;SDS011;8731;50.364;8.958;2022-12-17T22:19:32;69.27;;;19.97;;
17228;SDS011;8731;50.364;8.958;2022-12-17T22:23:55;55.93;;;19.83;;
17228;SDS011;8731;50.364;8.958;2022-12-17T22:28:17;47.53;;;20.10;;
17228;SDS011;8731;50.364;8.958;2022-12-17T22:32:40;58.90;;;21.40;;
17228;SDS011;8731;50.364;8.958;2022-12-17T22:37:24;49.90;;;18.53;;
17228;SDS011;8731;50.364;8.958;2022-12-17T22:41:46;50.20;;;21.20;;
17228;SDS011;8731;50.364;8.958;2022-12-17T22:46:26;69.13;;;19.77;;
17228;SDS011;8731;50.364;8.958;2022-12-17T22:50:50;48.43;;;20.00;;
17228;SDS011;8731;50.364;8.958;2022-12-17T22:55:14;74.00;;;21.13;;
17228;SDS011;8731;50.364;8.958;2022-12-17T22:59:37;70.20;;;27.23;;
17228;SDS011;8731;50.364;8.958;2022-12-17T23:04:00;72.43;;;28.10;;
17228;SDS011;8731;50.364;8.958;2022-12-17T23:08:23;49.40;;;21.00;;
17228;SDS011;8731;50.364;8.958;2022-12-17T23:12:47;37.90;;;18.57;;
17228;SDS011;8731;50.364;8.958;2022-12-17T23:17:13;40.10;;;19.43;;
17228;SDS011;8731;50.364;8.958;2022-12-17T23:21:36;37.23;;;18.43;;
17228;SDS011;8731;50.364;8.958;2022-12-17T23:26:04;40.70;;;17.33;;
17228;SDS011;8731;50.364;8.958;2022-12-17T23:30:29;60.30;;;22.10;;
17228;SDS011;8731;50.364;8.958;2022-12-17T23:34:52;54.43;;;24.93;;
17228;SDS011;8731;50.364;8.958;2022-12-17T23:39:14;42.37;;;19.07;;
17228;SDS011;8731;50.364;8.958;2022-12-17T23:43:37;46.53;;;19.73;;
17228;SDS011;8731;50.364;8.958;2022-12-17T23:48:01;43.23;;;19.57;;
17228;SDS011;8731;50.364;8.958;2022-12-17T23:52:23;45.83;;;20.87;;
17228;SDS011;8731;50.364;8.958;2022-12-17T23:56:45;38.07;;;17.57;;
